Aviation Digital Data Service (ADDS)

Output produced by METARs form (1745 UTC 12 December 2017)
found at http://aviationweather.gov/adds/metars/
 
KBFD 121724Z 1218/1318 29017G25KT 1 1/2SM -SN OVC015 
     TEMPO 1218/1222 4SM -SN OVC025 
     FM130000 29012G20KT 5SM -SN OVC050 
     FM130300 29014G23KT 1 1/2SM -SN BLSN OVC018 
     FM131500 29012G24KT 3SM -SN BR OVC015